Estación de Azapa medio

Ultimos registro cada 15 minutos 65
Estación Fecha / Hora Temperatura Humedad Lluvia Velocidad Dirección Radiación Presion
65 Azapa medio 09-05-2026 16:00 24,2 47 0 1,5 315 313 966
64 Azapa medio 09-05-2026 15:45 24,3 45,9 0 1,1 315 346 966
63 Azapa medio 09-05-2026 15:30 24,2 47,6 0 1,5 311 375 966
62 Azapa medio 09-05-2026 15:15 24,4 46,9 0 1,3 309 403 967
61 Azapa medio 09-05-2026 15:00 24,6 47,3 0 1,7 308 429 966
60 Azapa medio 09-05-2026 14:45 24,9 46 0 1,7 310 453 966
59 Azapa medio 09-05-2026 14:30 24,9 46,2 0 1,5 308 474 966
58 Azapa medio 09-05-2026 14:15 25 46,2 0 1,4 298 492 967
57 Azapa medio 09-05-2026 14:00 25 46,4 0 1,4 313 507 967
56 Azapa medio 09-05-2026 13:45 25,2 46,7 0 1,2 314 521 967
55 Azapa medio 09-05-2026 13:30 25 47,5 0 1,2 314 529 967
54 Azapa medio 09-05-2026 13:15 24,6 48,1 0 1,2 303 534 967
53 Azapa medio 09-05-2026 13:00 24,5 48 0 1,4 306 534 967
52 Azapa medio 09-05-2026 12:45 24,3 50,5 0 1,8 298 532 967
51 Azapa medio 09-05-2026 12:30 24,4 50,2 0 1,3 302 533 968
50 Azapa medio 09-05-2026 12:15 24,3 49,2 0 1,1 316 524 968
49 Azapa medio 09-05-2026 12:00 24 49,2 0 1,1 316 516 968
48 Azapa medio 09-05-2026 11:45 23,4 51,6 0 0,5 317 505 968
47 Azapa medio 09-05-2026 11:30 23 52,4 0 1,5 316 492 968
46 Azapa medio 09-05-2026 11:15 22,8 52,4 0 0,8 317 475 968
45 Azapa medio 09-05-2026 11:00 22,3 54,1 0 0,8 317 453 969
44 Azapa medio 09-05-2026 10:45 21,7 55,8 0 0,7 318 307 969
43 Azapa medio 09-05-2026 10:30 21,8 55,2 0 0,9 317 310 969
42 Azapa medio 09-05-2026 10:15 20,8 57,6 0 0,6 317 312 969
41 Azapa medio 09-05-2026 10:00 20 60,8 0 0,8 354 209 969
40 Azapa medio 09-05-2026 09:45 19,3 63,3 0 0,6 55 170 969
39 Azapa medio 09-05-2026 09:30 18,8 65 0 0,4 59 132 969
38 Azapa medio 09-05-2026 09:15 18,4 66,8 0 0,3 63 104 969
37 Azapa medio 09-05-2026 09:00 18 68,5 0 0,9 61 79 969
36 Azapa medio 09-05-2026 08:45 17,7 70,5 0 0,8 62 59 969
35 Azapa medio 09-05-2026 08:30 17,3 72,8 0 0,5 61 40 969
34 Azapa medio 09-05-2026 08:15 17,1 77,1 0 0,2 58 28 969
33 Azapa medio 09-05-2026 08:00 17 79,7 0 0 58 18 969
32 Azapa medio 09-05-2026 07:45 16,9 80,6 0 0 0 10 969
31 Azapa medio 09-05-2026 07:30 16,8 80,7 0 0 0 4 969
30 Azapa medio 09-05-2026 07:15 16,7 80,6 0 0 0 0 968
29 Azapa medio 09-05-2026 07:00 16,7 80,7 0 0 0 0 968
28 Azapa medio 09-05-2026 06:45 16,7 80,4 0 0 0 0 968
27 Azapa medio 09-05-2026 06:30 16,7 80,2 0 0 0 0 968
26 Azapa medio 09-05-2026 06:15 16,7 80,1 0 0 0 0 968
25 Azapa medio 09-05-2026 06:00 16,7 79,7 0 0 0 0 968
24 Azapa medio 09-05-2026 05:45 16,7 79,5 0 0 0 0 968
23 Azapa medio 09-05-2026 05:30 16,8 79,5 0 0 0 0 968
22 Azapa medio 09-05-2026 05:15 16,8 79,5 0 0 0 0 968
21 Azapa medio 09-05-2026 05:00 16,9 79,5 0 0 0 0 968
20 Azapa medio 09-05-2026 04:45 16,9 79,4 0 0 0 0 968
19 Azapa medio 09-05-2026 04:30 16,9 79,1 0 0 0 0 968
18 Azapa medio 09-05-2026 04:15 16,9 78,7 0 0 0 0 968
17 Azapa medio 09-05-2026 04:00 16,9 78,8 0 0 0 0 968
16 Azapa medio 09-05-2026 03:45 16,9 78,8 0 0 0 0 968
15 Azapa medio 09-05-2026 03:30 16,9 78,8 0 0 0 0 968
14 Azapa medio 09-05-2026 03:15 17 78,4 0 0,1 52 0 968
13 Azapa medio 09-05-2026 03:00 17 78,1 0 0 0 0 968
12 Azapa medio 09-05-2026 02:45 17 77,9 0 0 0 0 968
11 Azapa medio 09-05-2026 02:30 17,1 77,9 0 0 54 0 969
10 Azapa medio 09-05-2026 02:15 17,1 77,4 0 0 0 0 969
9 Azapa medio 09-05-2026 02:00 17,2 76,9 0 0 0 0 969
8 Azapa medio 09-05-2026 01:45 17,2 76,7 0 0 0 0 969
7 Azapa medio 09-05-2026 01:30 17,2 76,2 0 0 0 0 969
6 Azapa medio 09-05-2026 01:15 17,3 76,1 0 0 0 0 970
5 Azapa medio 09-05-2026 01:00 17,3 76 0 0 0 0 970
4 Azapa medio 09-05-2026 00:45 17,3 75,8 0 0 0 0 970
3 Azapa medio 09-05-2026 00:30 17,3 75,4 0 0 0 0 970
2 Azapa medio 09-05-2026 00:15 17,4 75,4 0 0 0 0 970
1 Azapa medio 09-05-2026 00:00 17,4 75,2 0 0 0 0 970